Prince Of Seas — A8JI5 — position and weather

sailwx.info

Track history (hours):
 
Tides and Currents Weather Stations Pressure Air Temp Water Temp Dewpoint Dewpoint Depression Visibility Wind Speed Wind Dir Waves Ship Positions

Prince Of Seas

Last reported at 2015-Apr-18 10:34 UTC. Time now 2015-Apr-19 21:05 UTC.
Position N 26°19' W 083°24'.

Length 131 m; beam 19 m.

Type: Ship. MMSI: 636091098.

Date/timePositionNaut miles runAvg speedWind from/ knotsBaromVisibWave heightAir tempDewpointWater temp
2015-Apr-18 10:34N 26°19' W 083°24'2117.9
2015-Apr-18 09:24N 26°40' W 083°18'3418.1
2015-Apr-18 07:30N 27°13' W 083°08'2814.4
2015-Apr-18 05:33N 27°36' W 082°51'1413.8
2015-Apr-18 04:33N 27°39' W 082°36'2 0.3
2015-Apr-17 20:08N 27°38' W 082°34'0 0.0
2015-Apr-16 18:14N 27°38' W 082°34'0 0.0
2015-Apr-16 17:08N 27°38' W 082°34'4 0.7
2015-Apr-16 11:27N 27°38' W 082°38'  
2015-Apr-10 09:16N 25°51' W 079°33'1216.3
2015-Apr-10 08:33N 26°02' W 079°30'  
Track history (hours):
 
Tides and Currents Weather Stations Pressure Air Temp Water Temp Dewpoint Dewpoint Depression Visibility Wind Speed Wind Dir Waves Ship Positions

Prince Of Seas

Last reported at 2015-Apr-18 10:34 UTC. Time now 2015-Apr-19 21:05 UTC.
Position N 26°19' W 083°24'.

Length 131 m; beam 19 m.

Type: Ship. MMSI: 636091098.

Date/timePositionNaut miles runAvg speedWind from/ knotsBaromVisibWave heightAir tempDewpointWater temp
2015-Apr-18 10:34N 26°19' W 083°24'2117.9
2015-Apr-18 09:24N 26°40' W 083°18'3418.1
2015-Apr-18 07:30N 27°13' W 083°08'2814.4
2015-Apr-18 05:33N 27°36' W 082°51'1413.8
2015-Apr-18 04:33N 27°39' W 082°36'2 0.3
2015-Apr-17 20:08N 27°38' W 082°34'0 0.0
2015-Apr-16 18:14N 27°38' W 082°34'0 0.0
2015-Apr-16 17:08N 27°38' W 082°34'4 0.7
2015-Apr-16 11:27N 27°38' W 082°38'  
2015-Apr-10 09:16N 25°51' W 079°33'1216.3
2015-Apr-10 08:33N 26°02' W 079°30'  

Dump ship's entire track history